Time;durP1;ratioP1;P1;durP2;ratioP2;P2;SDS_P1;SDS_P2;PMS_P1;PMS_P2;Temp;Humidity;BMP_temperature;BMP_pressure;BME280_temperature;BME280_humidity;BME280_pressure;Samples;Min_cycle;Max_cycle;Signal;HPM_P1;HPM_P2
2021/08/11 00:01:35;;;;;;;11.18;4.00;;;;;;;;;;5029897;28;20048;-52
2021/08/11 00:04:02;;;;;;;9.90;4.10;;;;;;;;;;5023701;28;20060;-50
2021/08/11 00:06:28;;;;;;;9.23;4.18;;;;;;;;;;5032841;28;20051;-52
2021/08/11 00:08:55;;;;;;;7.70;3.70;;;;;;;;;;5037072;28;20057;-53
2021/08/11 00:11:21;;;;;;;8.10;3.55;;;;;;;;;;5026644;28;20042;-53
2021/08/11 00:13:49;;;;;;;10.60;3.65;;;;;;;;;;5026728;28;20045;-53
2021/08/11 00:16:16;;;;;;;9.23;3.58;;;;;;;;;;5040825;28;20037;-52
2021/08/11 00:18:42;;;;;;;8.95;3.53;;;;;;;;;;5028982;28;20041;-53
2021/08/11 00:21:09;;;;;;;6.25;3.58;;;;;;;;;;5041176;28;20045;-52
2021/08/11 00:23:36;;;;;;;7.55;3.47;;;;;;;;;;5036507;28;20046;-53
2021/08/11 00:26:03;;;;;;;11.82;3.47;;;;;;;;;;5040889;28;20037;-53
2021/08/11 00:28:29;;;;;;;9.48;3.50;;;;;;;;;;5035710;28;20045;-52
2021/08/11 00:30:57;;;;;;;10.18;3.47;;;;;;;;;;5020157;28;20038;-53
2021/08/11 00:33:24;;;;;;;12.77;3.53;;;;;;;;;;5020815;28;20042;-52
2021/08/11 00:35:50;;;;;;;11.23;3.30;;;;;;;;;;5035394;28;20302;-53
2021/08/11 00:38:17;;;;;;;9.40;3.85;;;;;;;;;;5033934;28;20049;-51
2021/08/11 00:40:43;;;;;;;8.45;3.70;;;;;;;;;;5017515;28;20062;-54
2021/08/11 00:43:11;;;;;;;9.80;3.55;;;;;;;;;;5020471;28;20048;-53
2021/08/11 00:45:38;;;;;;;8.82;3.45;;;;;;;;;;5017157;28;20164;-51
2021/08/11 00:48:07;;;;;;;7.78;3.80;;;;;;;;;;5020452;28;20058;-53
2021/08/11 00:50:34;;;;;;;10.13;3.65;;;;;;;;;;5016387;28;20057;-54
2021/08/11 00:53:07;;;;;;;9.85;3.40;;;;;;;;;;5023264;28;20041;-52
2021/08/11 00:55:34;;;;;;;12.75;3.38;;;;;;;;;;5023201;28;20045;-51
2021/08/11 00:58:03;;;;;;;9.30;3.70;;;;;;;;;;5021212;28;20037;-52
2021/08/11 01:00:29;;;;;;;;;;;;;;;;;;5020142;28;20037;-53
2021/08/11 01:02:56;;;;;;;10.15;3.30;;;;;;;;;;5021839;28;19926;-52
2021/08/11 01:05:26;;;;;;;8.52;3.60;;;;;;;;;;5020828;28;20041;-53
2021/08/11 01:07:53;;;;;;;8.05;3.58;;;;;;;;;;5021640;28;20065;-52
2021/08/11 01:10:20;;;;;;;9.80;3.65;;;;;;;;;;5024242;28;20053;-54
2021/08/11 01:12:47;;;;;;;10.32;3.63;;;;;;;;;;5022755;28;20038;-52
2021/08/11 01:15:14;;;;;;;12.80;4.55;;;;;;;;;;5020033;28;20046;-53
2021/08/11 01:17:40;;;;;;;7.97;3.45;;;;;;;;;;5026181;28;20056;-53
2021/08/11 01:20:07;;;;;;;10.52;3.47;;;;;;;;;;5021611;28;20042;-50
2021/08/11 01:22:40;;;;;;;8.93;3.50;;;;;;;;;;5038471;28;20049;-48
2021/08/11 01:25:11;;;;;;;6.78;3.25;;;;;;;;;;5043730;28;20041;-53
2021/08/11 01:27:56;;;;;;;7.30;3.60;;;;;;;;;;5025285;28;20115;-50
2021/08/11 01:30:27;;;;;;;9.00;3.63;;;;;;;;;;5022319;28;20130;-50
2021/08/11 01:33:05;;;;;;;9.35;4.00;;;;;;;;;;5020289;28;20049;-53
2021/08/11 01:35:36;;;;;;;8.23;3.50;;;;;;;;;;5022404;28;20056;-52
2021/08/11 01:38:05;;;;;;;8.25;3.70;;;;;;;;;;5016731;28;20052;-53
2021/08/11 01:40:33;;;;;;;9.70;3.80;;;;;;;;;;5021361;28;20047;-53
2021/08/11 01:43:01;;;;;;;9.67;3.90;;;;;;;;;;5035105;28;20041;-52
2021/08/11 01:45:29;;;;;;;8.57;3.55;;;;;;;;;;5044000;28;20045;-53
2021/08/11 01:47:58;;;;;;;7.45;3.28;;;;;;;;;;5026511;28;20066;-52
2021/08/11 01:50:25;;;;;;;10.18;3.20;;;;;;;;;;5022841;28;20045;-51
2021/08/11 01:52:54;;;;;;;9.60;3.80;;;;;;;;;;5019261;28;20126;-53
2021/08/11 01:55:20;;;;;;;;;;;;;;;;;;5039339;28;20037;-51
2021/08/11 01:57:48;;;;;;;8.45;3.63;;;;;;;;;;5029171;28;19939;-51
2021/08/11 02:00:15;;;;;;;8.17;3.77;;;;;;;;;;5024199;28;20037;-51
2021/08/11 02:02:43;;;;;;;10.38;3.88;;;;;;;;;;5039400;28;20309;-51
2021/08/11 02:05:10;;;;;;;9.37;3.87;;;;;;;;;;5041806;28;20045;-53
2021/08/11 02:07:37;;;;;;;8.40;3.88;;;;;;;;;;5039818;28;20048;-53
2021/08/11 02:10:05;;;;;;;9.88;4.00;;;;;;;;;;5042015;28;20052;-51
2021/08/11 02:12:32;;;;;;;8.68;4.00;;;;;;;;;;5037082;28;20098;-50
2021/08/11 02:14:59;;;;;;;9.43;4.15;;;;;;;;;;5021949;28;20166;-52
2021/08/11 02:17:25;;;;;;;6.88;3.42;;;;;;;;;;5022453;28;20111;-51
2021/08/11 02:19:53;;;;;;;7.65;3.72;;;;;;;;;;5038092;28;20085;-53
2021/08/11 02:22:22;;;;;;;10.38;3.97;;;;;;;;;;5041370;28;20041;-53
2021/08/11 02:24:49;;;;;;;10.88;4.50;;;;;;;;;;5022027;28;20073;-52
2021/08/11 02:27:18;;;;;;;8.90;4.25;;;;;;;;;;5025359;28;20052;-50
2021/08/11 02:29:47;;;;;;;8.48;4.05;;;;;;;;;;5020760;28;20066;-50
2021/08/11 02:32:19;;;;;;;9.57;4.20;;;;;;;;;;5023897;28;20038;-50
2021/08/11 02:34:47;;;;;;;11.93;4.57;;;;;;;;;;5031382;28;20041;-53
2021/08/11 02:37:14;;;;;;;;;;;;;;;;;;5044465;28;20044;-51
2021/08/11 02:39:43;;;;;;;9.80;4.03;;;;;;;;;;5034637;28;19932;-50
2021/08/11 02:42:14;;;;;;;9.68;4.50;;;;;;;;;;5040909;28;20041;-51
2021/08/11 02:44:45;;;;;;;10.20;4.28;;;;;;;;;;5037727;28;20041;-51
2021/08/11 02:47:12;;;;;;;12.60;4.90;;;;;;;;;;5041730;28;20040;-52
2021/08/11 02:49:39;;;;;;;10.35;4.40;;;;;;;;;;5032050;28;20034;-53
2021/08/11 02:52:06;;;;;;;11.00;4.78;;;;;;;;;;5020653;28;20038;-52
2021/08/11 02:54:35;;;;;;;7.97;4.43;;;;;;;;;;5020263;28;20049;-52
2021/08/11 02:57:02;;;;;;;13.35;5.00;;;;;;;;;;5023194;28;20139;-52
2021/08/11 02:59:29;;;;;;;9.65;4.63;;;;;;;;;;5024098;28;20042;-51
2021/08/11 03:02:00;;;;;;;10.57;4.88;;;;;;;;;;5044763;28;20045;-49
2021/08/11 03:04:26;;;;;;;10.68;5.43;;;;;;;;;;5038493;28;20041;-51
2021/08/11 03:06:53;;;;;;;8.98;4.53;;;;;;;;;;5042390;28;20037;-52
2021/08/11 03:09:21;;;;;;;10.65;5.03;;;;;;;;;;5041447;28;20033;-51
2021/08/11 03:11:48;;;;;;;10.30;5.00;;;;;;;;;;5037967;28;20089;-52
2021/08/11 03:14:14;;;;;;;9.85;4.78;;;;;;;;;;5038762;28;20025;-52
2021/08/11 03:16:41;;;;;;;10.80;5.03;;;;;;;;;;5020657;28;20089;-50
2021/08/11 03:19:09;;;;;;;12.30;5.40;;;;;;;;;;5020841;28;20042;-53
2021/08/11 03:21:36;;;;;;;11.38;5.03;;;;;;;;;;5016287;28;20034;-52
2021/08/11 03:24:05;;;;;;;9.98;5.07;;;;;;;;;;5020660;28;20041;-52
2021/08/11 03:26:31;;;;;;;11.55;5.10;;;;;;;;;;5027670;28;20036;-51
2021/08/11 03:29:00;;;;;;;12.40;5.25;;;;;;;;;;5041942;28;20041;-52
2021/08/11 03:31:28;;;;;;;12.65;4.88;;;;;;;;;;5035633;28;20041;-52
2021/08/11 03:33:56;;;;;;;10.93;5.15;;;;;;;;;;5040819;28;20041;-56
2021/08/11 03:36:24;;;;;;;13.77;5.70;;;;;;;;;;5031917;28;20037;-52
2021/08/11 03:38:51;;;;;;;11.88;5.32;;;;;;;;;;5021995;28;20037;-52
2021/08/11 03:41:17;;;;;;;12.25;5.47;;;;;;;;;;5018894;28;20066;-52
2021/08/11 03:43:44;;;;;;;12.40;5.43;;;;;;;;;;5021996;28;20041;-53
2021/08/11 03:46:10;;;;;;;10.48;5.35;;;;;;;;;;5016816;28;20042;-51
2021/08/11 03:48:37;;;;;;;12.13;5.53;;;;;;;;;;5021706;28;20034;-53
2021/08/11 03:51:03;;;;;;;11.75;6.00;;;;;;;;;;5022031;28;20041;-53
2021/08/11 03:53:31;;;;;;;10.55;5.18;;;;;;;;;;5019590;28;20172;-52
2021/08/11 03:55:58;;;;;;;12.18;5.78;;;;;;;;;;5040897;28;20055;-51
2021/08/11 03:58:24;;;;;;;12.68;5.70;;;;;;;;;;5021405;28;20040;-50
2021/08/11 04:00:51;;;;;;;11.50;5.25;;;;;;;;;;5023390;28;20037;-50
2021/08/11 04:03:19;;;;;;;11.20;5.65;;;;;;;;;;5018191;28;20056;-52
2021/08/11 04:05:45;;;;;;;11.23;5.28;;;;;;;;;;5019209;28;20047;-52
2021/08/11 04:08:12;;;;;;;18.13;5.63;;;;;;;;;;5018786;28;20053;-52
2021/08/11 04:10:44;;;;;;;13.82;5.20;;;;;;;;;;5031670;28;20049;-52
2021/08/11 04:13:11;;;;;;;11.38;5.38;;;;;;;;;;5027223;28;20046;-53
2021/08/11 04:15:38;;;;;;;11.80;5.88;;;;;;;;;;5021165;28;20107;-52
2021/08/11 04:18:04;;;;;;;10.48;5.28;;;;;;;;;;5026680;28;20053;-52
2021/08/11 04:20:31;;;;;;;11.40;5.32;;;;;;;;;;5043330;28;20057;-52
2021/08/11 04:22:57;;;;;;;12.20;5.22;;;;;;;;;;5038337;28;20049;-51
2021/08/11 04:25:24;;;;;;;10.02;5.25;;;;;;;;;;5040555;28;20041;-52
2021/08/11 04:27:52;;;;;;;11.32;5.00;;;;;;;;;;5036037;28;20033;-49
2021/08/11 04:30:18;;;;;;;13.40;6.10;;;;;;;;;;5020717;28;20077;-52
2021/08/11 04:32:48;;;;;;;12.25;5.90;;;;;;;;;;5024282;28;20267;-50
2021/08/11 04:35:14;;;;;;;13.43;5.70;;;;;;;;;;5024729;28;20046;-52
2021/08/11 04:37:41;;;;;;;11.15;5.88;;;;;;;;;;5024296;28;20115;-52
2021/08/11 04:40:08;;;;;;;12.80;6.38;;;;;;;;;;5021566;28;20042;-52
2021/08/11 04:42:35;;;;;;;16.10;5.82;;;;;;;;;;5024472;28;20156;-52
2021/08/11 04:45:03;;;;;;;13.52;6.00;;;;;;;;;;5020079;28;20081;-53
2021/08/11 04:47:30;;;;;;;11.90;6.47;;;;;;;;;;5022742;28;20037;-52
2021/08/11 04:49:56;;;;;;;17.15;7.78;;;;;;;;;;5033500;28;20099;-52
2021/08/11 04:52:24;;;;;;;16.77;7.82;;;;;;;;;;5039981;28;20130;-52
2021/08/11 04:54:51;;;;;;;15.27;8.30;;;;;;;;;;5040744;28;20041;-48
2021/08/11 04:57:18;;;;;;;11.30;6.30;;;;;;;;;;5043783;28;20030;-52
2021/08/11 04:59:44;;;;;;;13.10;5.93;;;;;;;;;;5039006;28;20041;-52
2021/08/11 05:02:12;;;;;;;11.50;5.68;;;;;;;;;;5042328;28;20049;-52
2021/08/11 05:04:39;;;;;;;8.00;5.22;;;;;;;;;;5037970;28;20167;-53
2021/08/11 05:07:06;;;;;;;10.48;5.15;;;;;;;;;;5043719;28;20041;-50
2021/08/11 05:09:32;;;;;;;7.95;4.78;;;;;;;;;;5039887;28;20057;-52
2021/08/11 05:11:59;;;;;;;6.97;3.95;;;;;;;;;;5040984;28;20041;-53
2021/08/11 05:14:25;;;;;;;7.85;4.35;;;;;;;;;;5040281;28;20048;-52
2021/08/11 05:16:52;;;;;;;7.20;4.25;;;;;;;;;;5042784;28;20091;-54
2021/08/11 05:19:20;;;;;;;8.07;4.30;;;;;;;;;;5025679;28;20077;-51
2021/08/11 05:21:46;;;;;;;9.07;4.73;;;;;;;;;;5037766;28;20049;-51
2021/08/11 05:24:13;;;;;;;9.70;4.43;;;;;;;;;;5041777;28;20056;-50
2021/08/11 05:26:39;;;;;;;10.05;4.63;;;;;;;;;;5038292;28;20045;-52
2021/08/11 05:29:05;;;;;;;9.13;4.65;;;;;;;;;;5042799;28;20041;-52
2021/08/11 05:31:32;;;;;;;8.38;4.78;;;;;;;;;;5039745;28;20064;-50
2021/08/11 05:33:59;;;;;;;10.13;5.10;;;;;;;;;;5042447;28;20041;-53
2021/08/11 05:36:26;;;;;;;9.73;5.45;;;;;;;;;;5037397;28;20034;-50
2021/08/11 05:38:53;;;;;;;10.57;5.40;;;;;;;;;;5042671;28;20077;-53
2021/08/11 05:41:19;;;;;;;11.20;5.60;;;;;;;;;;5036356;28;20112;-49
2021/08/11 05:43:46;;;;;;;11.15;5.82;;;;;;;;;;5040532;28;20057;-48
2021/08/11 05:46:12;;;;;;;10.38;6.03;;;;;;;;;;5038558;28;20109;-53
2021/08/11 05:48:39;;;;;;;9.82;5.45;;;;;;;;;;5042162;28;20062;-52
2021/08/11 05:51:05;;;;;;;13.48;6.13;;;;;;;;;;5055127;28;20044;-53
2021/08/11 05:53:33;;;;;;;8.70;5.28;;;;;;;;;;5043214;28;20048;-50
2021/08/11 05:56:00;;;;;;;11.23;5.38;;;;;;;;;;5040551;28;20041;-53
2021/08/11 05:58:27;;;;;;;11.38;5.13;;;;;;;;;;5039318;28;20045;-53
2021/08/11 06:00:53;;;;;;;12.57;5.53;;;;;;;;;;5043408;28;20045;-53
2021/08/11 06:03:20;;;;;;;8.85;4.85;;;;;;;;;;5039316;28;20034;-49
2021/08/11 06:05:46;;;;;;;9.90;6.07;;;;;;;;;;5044446;28;20067;-51
2021/08/11 06:08:13;;;;;;;9.63;5.15;;;;;;;;;;5037167;28;20034;-49
2021/08/11 06:10:40;;;;;;;10.90;5.60;;;;;;;;;;5042258;28;20049;-49
2021/08/11 06:13:07;;;;;;;8.67;5.70;;;;;;;;;;5036378;28;20045;-53
2021/08/11 06:15:34;;;;;;;9.70;5.53;;;;;;;;;;5041593;28;20125;-53
2021/08/11 06:18:00;;;;;;;10.50;5.53;;;;;;;;;;5036737;28;20041;-53
2021/08/11 06:20:27;;;;;;;10.80;6.07;;;;;;;;;;5042350;28;20052;-52
2021/08/11 06:22:54;;;;;;;14.25;7.60;;;;;;;;;;5032545;28;20057;-52
2021/08/11 06:25:21;;;;;;;17.67;8.68;;;;;;;;;;5020574;28;20045;-53
2021/08/11 06:27:49;;;;;;;14.38;7.63;;;;;;;;;;5034465;28;20111;-51
2021/08/11 06:30:15;;;;;;;15.05;8.00;;;;;;;;;;5021760;28;20050;-52
2021/08/11 06:32:43;;;;;;;11.90;7.10;;;;;;;;;;5019566;28;20041;-51
2021/08/11 06:35:10;;;;;;;12.88;7.30;;;;;;;;;;5022219;28;20053;-50
2021/08/11 06:37:47;;;;;;;12.32;6.95;;;;;;;;;;5023115;28;20045;-51
2021/08/11 06:40:14;;;;;;;13.88;7.63;;;;;;;;;;5022172;28;20045;-50
2021/08/11 06:42:42;;;;;;;16.38;7.60;;;;;;;;;;5038448;28;20048;-49
2021/08/11 06:45:12;;;;;;;13.50;7.05;;;;;;;;;;5020572;28;20078;-53
2021/08/11 06:47:38;;;;;;;14.32;7.25;;;;;;;;;;5022897;28;20046;-51
2021/08/11 06:50:06;;;;;;;14.82;7.15;;;;;;;;;;5017558;28;20048;-52
2021/08/11 06:52:34;;;;;;;13.63;7.43;;;;;;;;;;5021927;28;20053;-54
2021/08/11 06:55:01;;;;;;;17.93;7.80;;;;;;;;;;5019135;28;20060;-52
2021/08/11 06:57:27;;;;;;;13.57;7.70;;;;;;;;;;5019707;28;20327;-53
2021/08/11 06:59:56;;;;;;;12.02;7.20;;;;;;;;;;5031328;28;20037;-53
2021/08/11 07:02:25;;;;;;;14.20;7.82;;;;;;;;;;5042954;28;20045;-51
2021/08/11 07:04:51;;;;;;;12.55;6.95;;;;;;;;;;5039559;28;20041;-54
2021/08/11 07:07:18;;;;;;;13.75;7.03;;;;;;;;;;5042395;28;20037;-51
2021/08/11 07:09:44;;;;;;;17.92;8.07;;;;;;;;;;5038634;28;20033;-54
2021/08/11 07:12:11;;;;;;;20.13;8.25;;;;;;;;;;5043211;28;20045;-50
2021/08/11 07:14:39;;;;;;;18.30;8.48;;;;;;;;;;5033102;28;20053;-51
2021/08/11 07:17:05;;;;;;;18.17;8.63;;;;;;;;;;5022825;28;20127;-52
2021/08/11 07:19:33;;;;;;;19.83;8.25;;;;;;;;;;5019273;28;20034;-48
2021/08/11 07:22:01;;;;;;;16.67;7.87;;;;;;;;;;5023011;28;20042;-52
2021/08/11 07:24:27;;;;;;;19.33;8.55;;;;;;;;;;5020850;28;20046;-54
2021/08/11 07:26:54;;;;;;;19.60;8.20;;;;;;;;;;5021129;28;20061;-52
2021/08/11 07:29:20;;;;;;;19.55;8.10;;;;;;;;;;5021891;28;20104;-52
2021/08/11 07:31:47;;;;;;;16.00;7.80;;;;;;;;;;5037806;28;20037;-54
2021/08/11 07:34:13;;;;;;;16.92;7.60;;;;;;;;;;5042791;28;20049;-53
2021/08/11 07:36:41;;;;;;;13.93;7.18;;;;;;;;;;5039914;28;20045;-53
2021/08/11 07:39:07;;;;;;;17.30;8.73;;;;;;;;;;5044860;28;20045;-54
2021/08/11 07:41:33;;;;;;;19.63;8.52;;;;;;;;;;5026296;28;20037;-51
2021/08/11 07:44:00;;;;;;;16.63;8.23;;;;;;;;;;5021670;28;20093;-50
2021/08/11 07:46:27;;;;;;;19.67;7.90;;;;;;;;;;5027595;28;20069;-52
2021/08/11 07:48:53;;;;;;;19.15;8.13;;;;;;;;;;5041610;28;20045;-52
2021/08/11 07:51:20;;;;;;;19.13;8.52;;;;;;;;;;5031659;28;20056;-54
2021/08/11 07:53:50;;;;;;;16.17;8.60;;;;;;;;;;5041647;28;20110;-53
2021/08/11 07:56:17;;;;;;;19.25;9.10;;;;;;;;;;5032655;28;20135;-54
2021/08/11 07:58:44;;;;;;;24.15;10.80;;;;;;;;;;5021033;28;20049;-53
2021/08/11 08:01:10;;;;;;;25.75;11.50;;;;;;;;;;5019579;28;20049;-53
2021/08/11 08:03:37;;;;;;;25.10;11.95;;;;;;;;;;5041113;28;20108;-54
2021/08/11 08:06:03;;;;;;;21.02;9.00;;;;;;;;;;5039424;28;20051;-52
2021/08/11 08:08:31;;;;;;;24.65;9.77;;;;;;;;;;5038610;28;20176;-53
2021/08/11 08:10:59;;;;;;;19.17;9.90;;;;;;;;;;5026943;28;20038;-53
2021/08/11 08:13:26;;;;;;;22.70;10.90;;;;;;;;;;5035737;28;20033;-51
2021/08/11 08:15:53;;;;;;;25.80;9.70;;;;;;;;;;5041824;28;20122;-54
2021/08/11 08:18:22;;;;;;;19.33;8.90;;;;;;;;;;5038406;28;20077;-54
2021/08/11 08:20:49;;;;;;;19.73;9.88;;;;;;;;;;5042163;28;20037;-53
2021/08/11 08:23:16;;;;;;;21.92;9.93;;;;;;;;;;5023306;28;20040;-54
2021/08/11 08:25:42;;;;;;;19.98;9.95;;;;;;;;;;5020457;28;20096;-54
2021/08/11 08:28:10;;;;;;;23.15;9.20;;;;;;;;;;5027559;28;20037;-51
2021/08/11 08:30:36;;;;;;;21.33;9.88;;;;;;;;;;5042368;28;20167;-51
2021/08/11 08:33:05;;;;;;;26.25;10.63;;;;;;;;;;5030408;28;20042;-53
2021/08/11 08:35:32;;;;;;;21.85;9.18;;;;;;;;;;5023352;28;20145;-53
2021/08/11 08:37:58;;;;;;;21.52;9.45;;;;;;;;;;5019152;28;20029;-54
2021/08/11 08:40:30;;;;;;;19.48;9.93;;;;;;;;;;5020380;28;20112;-52
2021/08/11 08:42:57;;;;;;;22.60;11.45;;;;;;;;;;5016638;28;20034;-52
2021/08/11 08:45:25;;;;;;;24.85;11.23;;;;;;;;;;5021380;28;20045;-54
2021/08/11 08:47:52;;;;;;;22.58;9.40;;;;;;;;;;5034512;28;20056;-55
2021/08/11 08:50:19;;;;;;;27.45;11.15;;;;;;;;;;5019249;28;20042;-53
2021/08/11 08:52:46;;;;;;;28.48;12.68;;;;;;;;;;5019884;28;20038;-56
2021/08/11 08:55:13;;;;;;;27.88;12.48;;;;;;;;;;5034893;28;20037;-52
2021/08/11 08:57:39;;;;;;;24.52;12.07;;;;;;;;;;5040424;28;20041;-54
2021/08/11 09:00:07;;;;;;;25.15;11.20;;;;;;;;;;5018846;28;20042;-52
2021/08/11 09:02:36;;;;;;;25.45;11.80;;;;;;;;;;5020504;28;20052;-55
2021/08/11 09:05:02;;;;;;;22.73;10.65;;;;;;;;;;5015979;28;20061;-52
2021/08/11 09:07:29;;;;;;;23.52;10.85;;;;;;;;;;5022076;28;20037;-50
2021/08/11 09:09:55;;;;;;;22.75;10.07;;;;;;;;;;5023657;28;20029;-55
2021/08/11 09:12:23;;;;;;;21.90;10.10;;;;;;;;;;5041176;28;20068;-54
2021/08/11 09:14:50;;;;;;;19.60;9.77;;;;;;;;;;5030611;28;20042;-54
2021/08/11 09:17:32;;;;;;;23.13;10.32;;;;;;;;;;5022177;28;20049;-53
2021/08/11 09:20:00;;;;;;;23.30;9.80;;;;;;;;;;5029257;28;20045;-55
2021/08/11 09:22:27;;;;;;;19.98;10.00;;;;;;;;;;5024449;28;20038;-55
2021/08/11 09:25:03;;;;;;;21.52;10.18;;;;;;;;;;5026011;28;20052;-54
2021/08/11 09:27:29;;;;;;;22.00;10.07;;;;;;;;;;5043415;28;20052;-52
2021/08/11 09:30:04;;;;;;;19.92;9.55;;;;;;;;;;5035011;28;20103;-53
2021/08/11 09:32:30;;;;;;;19.98;9.50;;;;;;;;;;5023101;28;20045;-53
2021/08/11 09:34:57;;;;;;;20.38;9.27;;;;;;;;;;5020140;28;20058;-54
2021/08/11 09:37:38;;;;;;;23.63;8.95;;;;;;;;;;5022279;28;20034;-54
2021/08/11 09:40:11;;;;;;;20.33;9.38;;;;;;;;;;5019152;28;20077;-55
2021/08/11 09:42:38;;;;;;;18.90;8.65;;;;;;;;;;5023389;28;20056;-54
2021/08/11 09:45:07;;;;;;;19.60;8.95;;;;;;;;;;5019971;28;20052;-55
2021/08/11 09:47:34;;;;;;;17.58;8.05;;;;;;;;;;5042730;28;20049;-55
2021/08/11 09:50:01;;;;;;;15.63;7.28;;;;;;;;;;5043704;28;20211;-55
2021/08/11 09:52:45;;;;;;;13.70;6.00;;;;;;;;;;5033037;28;20037;-54
2021/08/11 09:55:13;;;;;;;14.05;6.25;;;;;;;;;;5041652;28;20060;-55
2021/08/11 09:57:40;;;;;;;16.55;7.03;;;;;;;;;;5018950;28;20053;-55
2021/08/11 10:00:06;;;;;;;17.63;8.05;;;;;;;;;;5022445;28;20038;-53
2021/08/11 10:02:37;;;;;;;13.05;5.80;;;;;;;;;;5017953;28;20042;-53
2021/08/11 10:05:05;;;;;;;14.05;6.90;;;;;;;;;;5022527;28;20030;-56
2021/08/11 10:07:32;;;;;;;13.25;5.53;;;;;;;;;;5016622;28;20123;-54
2021/08/11 10:10:03;;;;;;;15.88;5.78;;;;;;;;;;5026164;28;20045;-55
2021/08/11 10:12:32;;;;;;;11.18;5.50;;;;;;;;;;5025411;28;20093;-54
2021/08/11 10:14:59;;;;;;;12.07;5.78;;;;;;;;;;5022832;28;20042;-54
2021/08/11 10:17:29;;;;;;;14.95;7.00;;;;;;;;;;5017569;28;20033;-56
2021/08/11 10:19:57;;;;;;;15.73;5.07;;;;;;;;;;5021190;28;20042;-54
2021/08/11 10:22:24;;;;;;;10.27;5.25;;;;;;;;;;5026834;28;20045;-55
2021/08/11 10:24:51;;;;;;;12.45;5.15;;;;;;;;;;5043065;28;20037;-51
2021/08/11 10:27:18;;;;;;;8.65;3.80;;;;;;;;;;5033627;28;20057;-54
2021/08/11 10:29:46;;;;;;;12.15;4.07;;;;;;;;;;5025883;28;20050;-53
2021/08/11 10:32:14;;;;;;;8.48;4.25;;;;;;;;;;5034332;28;20044;-56
2021/08/11 10:34:41;;;;;;;10.30;3.58;;;;;;;;;;5023487;28;20049;-55
2021/08/11 10:37:08;;;;;;;6.00;3.00;;;;;;;;;;5021358;28;20030;-54
2021/08/11 10:39:34;;;;;;;8.38;3.25;;;;;;;;;;5042960;28;20053;-53
2021/08/11 10:42:09;;;;;;;11.13;3.42;;;;;;;;;;5043384;28;20049;-55
2021/08/11 10:44:35;;;;;;;10.55;4.00;;;;;;;;;;5040457;28;20037;-55
2021/08/11 10:47:04;;;;;;;8.52;3.63;;;;;;;;;;5045380;28;20049;-56
2021/08/11 10:49:32;;;;;;;9.90;3.83;;;;;;;;;;5022547;28;20057;-55
2021/08/11 10:52:15;;;;;;;10.47;4.37;;;;;;;;;;5023172;28;20033;-55
2021/08/11 10:54:49;;;;;;;11.57;4.55;;;;;;;;;;5026425;28;20045;-55
2021/08/11 10:57:15;;;;;;;7.82;3.60;;;;;;;;;;5042399;28;20126;-56
2021/08/11 10:59:48;;;;;;;6.97;3.28;;;;;;;;;;5023819;28;20034;-53
2021/08/11 11:05:37;;;;;;;9.98;3.85;;;;;;;;;;4982927;28;20046;-56
2021/08/11 11:08:24;;;;;;;9.25;4.03;;;;;;;;;;5037317;28;20059;-54
2021/08/11 11:10:51;;;;;;;7.57;3.88;;;;;;;;;;5022904;28;20045;-56
2021/08/11 11:13:33;;;;;;;8.52;3.63;;;;;;;;;;5042196;28;20041;-55
2021/08/11 11:16:01;;;;;;;6.63;3.17;;;;;;;;;;5040386;28;20025;-56
2021/08/11 11:18:27;;;;;;;5.65;3.10;;;;;;;;;;5042239;28;20044;-56
2021/08/11 11:21:18;;;;;;;12.82;3.90;;;;;;;;;;5018066;28;20041;-55
2021/08/11 11:23:45;;;;;;;11.30;5.13;;;;;;;;;;5021270;28;20034;-57
2021/08/11 11:26:19;;;;;;;8.82;4.00;;;;;;;;;;5040133;28;20041;-55
2021/08/11 11:29:18;;;;;;;6.07;2.80;;;;;;;;;;5042518;28;20056;-56
2021/08/11 11:31:45;;;;;;;5.28;2.53;;;;;;;;;;5022613;28;20029;-56
2021/08/11 11:34:26;;;;;;;5.87;2.47;;;;;;;;;;5020044;28;20111;-58
2021/08/11 11:37:13;;;;;;;8.63;2.63;;;;;;;;;;5021760;28;20042;-56
2021/08/11 11:39:54;;;;;;;6.30;2.55;;;;;;;;;;5016250;28;20045;-58
2021/08/11 11:42:29;;;;;;;6.85;2.65;;;;;;;;;;5020392;28;20055;-57
2021/08/11 11:44:58;;;;;;;7.05;2.80;;;;;;;;;;5017914;28;20053;-55
2021/08/11 11:47:40;;;;;;;5.80;2.20;;;;;;;;;;5022911;28;20123;-56
2021/08/11 11:50:26;;;;;;;5.15;2.55;;;;;;;;;;5019514;28;20041;-57
2021/08/11 11:52:55;;;;;;;7.03;2.35;;;;;;;;;;5042773;28;20060;-57
2021/08/11 11:55:26;;;;;;;6.50;2.40;;;;;;;;;;5023934;28;20041;-57
2021/08/11 11:57:56;;;;;;;4.43;2.20;;;;;;;;;;5022321;28;20042;-57
2021/08/11 12:00:23;;;;;;;7.00;2.63;;;;;;;;;;5031590;28;20048;-57
2021/08/11 12:02:51;;;;;;;5.25;2.05;;;;;;;;;;5022160;28;20022;-56
2021/08/11 12:05:17;;;;;;;5.85;2.35;;;;;;;;;;5021277;28;20034;-55
2021/08/11 12:07:44;;;;;;;6.65;2.30;;;;;;;;;;5018926;28;20081;-57
2021/08/11 12:10:10;;;;;;;7.80;2.53;;;;;;;;;;5027050;28;20037;-56
2021/08/11 12:12:36;;;;;;;7.38;2.40;;;;;;;;;;5022561;28;20050;-56
2021/08/11 12:15:17;;;;;;;5.70;2.42;;;;;;;;;;5022527;28;20042;-55
2021/08/11 12:17:44;;;;;;;5.85;2.10;;;;;;;;;;5018187;28;20030;-56
2021/08/11 12:20:25;;;;;;;5.30;2.17;;;;;;;;;;5024020;28;20099;-57
2021/08/11 12:22:54;;;;;;;4.60;2.22;;;;;;;;;;5017208;28;20046;-58
2021/08/11 12:25:21;;;;;;;4.97;2.00;;;;;;;;;;5024262;28;20107;-57
2021/08/11 12:28:03;;;;;;;5.85;2.20;;;;;;;;;;5017082;28;20042;-57
2021/08/11 12:30:31;;;;;;;6.55;2.38;;;;;;;;;;5019660;28;20053;-56
2021/08/11 12:32:59;;;;;;;4.90;1.95;;;;;;;;;;5016401;28;20045;-56
2021/08/11 12:35:26;;;;;;;4.97;2.10;;;;;;;;;;5021025;28;20060;-56
2021/08/11 12:37:52;;;;;;;7.32;2.47;;;;;;;;;;5017356;28;20057;-56
2021/08/11 12:40:29;;;;;;;6.57;2.53;;;;;;;;;;5021259;28;20033;-55
2021/08/11 12:42:58;;;;;;;7.85;3.60;;;;;;;;;;5017381;28;20107;-57
2021/08/11 12:45:25;;;;;;;11.57;2.33;;;;;;;;;;5020799;28;20045;-57
2021/08/11 12:47:53;;;;;;;6.75;2.15;;;;;;;;;;5024371;28;20041;-57
2021/08/11 12:50:20;;;;;;;6.10;2.33;;;;;;;;;;5040590;28;20037;-56
2021/08/11 12:52:56;;;;;;;5.60;2.20;;;;;;;;;;5032750;28;20056;-57
2021/08/11 12:55:32;;;;;;;6.25;2.13;;;;;;;;;;5026433;28;20126;-57
2021/08/11 12:57:59;;;;;;;6.78;2.75;;;;;;;;;;5020468;28;20037;-55
2021/08/11 13:00:39;;;;;;;6.00;2.00;;;;;;;;;;5023251;28;20034;-57
2021/08/11 13:03:10;;;;;;;7.82;2.10;;;;;;;;;;5019801;28;20026;-56
2021/08/11 13:05:48;;;;;;;6.00;2.25;;;;;;;;;;5024176;28;20122;-57
2021/08/11 13:08:14;;;;;;;5.85;1.98;;;;;;;;;;5019770;28;20124;-56
2021/08/11 13:10:53;;;;;;;7.70;2.47;;;;;;;;;;5012597;28;20091;-57
2021/08/11 13:13:23;;;;;;;4.25;1.98;;;;;;;;;;5002353;28;20057;-57
2021/08/11 13:15:50;;;;;;;6.60;2.33;;;;;;;;;;5023904;28;20045;-56
2021/08/11 13:18:25;;;;;;;4.97;2.05;;;;;;;;;;5022127;28;20048;-56
2021/08/11 13:20:51;;;;;;;5.60;2.20;;;;;;;;;;5021545;28;20049;-56
2021/08/11 13:23:18;;;;;;;6.57;2.22;;;;;;;;;;5022497;28;20156;-56
2021/08/11 13:25:45;;;;;;;4.75;2.20;;;;;;;;;;5019808;28;20034;-57
2021/08/11 13:28:13;;;;;;;7.85;2.20;;;;;;;;;;5022256;28;20030;-58
2021/08/11 13:30:39;;;;;;;4.38;1.90;;;;;;;;;;5019330;28;20124;-57
2021/08/11 13:33:06;;;;;;;9.00;2.58;;;;;;;;;;5023306;28;20042;-55
2021/08/11 13:35:35;;;;;;;8.75;2.38;;;;;;;;;;5019896;28;20108;-57
2021/08/11 13:38:02;;;;;;;6.47;2.17;;;;;;;;;;5021910;28;20038;-57
2021/08/11 13:40:29;;;;;;;5.00;2.25;;;;;;;;;;5018499;28;20052;-57
2021/08/11 13:42:57;;;;;;;4.55;2.25;;;;;;;;;;5023644;28;20054;-56
2021/08/11 13:45:24;;;;;;;4.50;1.90;;;;;;;;;;5019925;28;20366;-57
2021/08/11 13:47:51;;;;;;;5.22;2.15;;;;;;;;;;5024352;28;20107;-55
2021/08/11 13:50:18;;;;;;;4.75;2.20;;;;;;;;;;5019658;28;20026;-55
2021/08/11 13:52:50;;;;;;;8.00;2.53;;;;;;;;;;5022766;28;20034;-58
2021/08/11 13:55:18;;;;;;;5.68;2.45;;;;;;;;;;5019612;28;20069;-56
2021/08/11 13:57:45;;;;;;;5.60;2.28;;;;;;;;;;5024956;28;20049;-57
2021/08/11 14:00:11;;;;;;;4.95;2.20;;;;;;;;;;5023758;28;20057;-56
2021/08/11 14:02:56;;;;;;;6.32;2.42;;;;;;;;;;5025806;28;20180;-58
2021/08/11 14:05:22;;;;;;;5.15;2.00;;;;;;;;;;4964988;28;20122;-57
2021/08/11 14:07:49;;;;;;;5.28;2.28;;;;;;;;;;5013699;28;20044;-58
2021/08/11 14:10:15;;;;;;;10.18;2.22;;;;;;;;;;5020224;28;20029;-58
2021/08/11 14:12:43;;;;;;;6.50;2.45;;;;;;;;;;5021915;28;20046;-57
2021/08/11 14:15:10;;;;;;;6.10;2.40;;;;;;;;;;5022624;28;20048;-57
2021/08/11 14:17:36;;;;;;;7.05;2.58;;;;;;;;;;5019802;28;20037;-57
2021/08/11 14:20:03;;;;;;;6.63;2.40;;;;;;;;;;5021355;28;20041;-57
2021/08/11 14:22:30;;;;;;;7.60;2.90;;;;;;;;;;5018016;28;20060;-57
2021/08/11 14:24:57;;;;;;;5.65;2.10;;;;;;;;;;5023499;28;20038;-58
2021/08/11 14:27:23;;;;;;;5.15;2.30;;;;;;;;;;5019999;28;20038;-57
2021/08/11 14:29:51;;;;;;;5.82;2.33;;;;;;;;;;5024632;28;20044;-55
2021/08/11 14:32:18;;;;;;;6.30;2.22;;;;;;;;;;5018727;28;20049;-59
2021/08/11 14:34:45;;;;;;;7.45;2.28;;;;;;;;;;5023803;28;20123;-57
2021/08/11 14:37:11;;;;;;;6.47;2.10;;;;;;;;;;5019210;28;20048;-57
2021/08/11 14:39:38;;;;;;;4.97;2.13;;;;;;;;;;5022365;28;20049;-58
2021/08/11 14:42:04;;;;;;;4.63;2.00;;;;;;;;;;5019358;28;20037;-58
2021/08/11 14:44:31;;;;;;;5.45;2.10;;;;;;;;;;5021855;28;20046;-58
2021/08/11 14:46:59;;;;;;;6.10;2.28;;;;;;;;;;5018366;28;20059;-58